sensor_id;sensor_type;location;lat;lon;timestamp;P1;durP1;ratioP1;P2;durP2;ratioP2
36829;SDS011;22767;47.328;9.640;2023-03-01T00:01:22;25.08;;;17.35;;
36829;SDS011;22767;47.328;9.640;2023-03-01T00:03:48;24.00;;;17.25;;
36829;SDS011;22767;47.328;9.640;2023-03-01T00:06:14;25.15;;;16.73;;
36829;SDS011;22767;47.328;9.640;2023-03-01T00:08:40;25.67;;;18.15;;
36829;SDS011;22767;47.328;9.640;2023-03-01T00:11:07;26.65;;;18.42;;
36829;SDS011;22767;47.328;9.640;2023-03-01T00:13:34;26.45;;;17.75;;
36829;SDS011;22767;47.328;9.640;2023-03-01T00:16:02;23.65;;;17.20;;
36829;SDS011;22767;47.328;9.640;2023-03-01T00:18:28;25.15;;;17.17;;
36829;SDS011;22767;47.328;9.640;2023-03-01T00:20:55;24.85;;;17.17;;
36829;SDS011;22767;47.328;9.640;2023-03-01T00:23:22;28.35;;;17.15;;
36829;SDS011;22767;47.328;9.640;2023-03-01T00:25:48;24.35;;;17.70;;
36829;SDS011;22767;47.328;9.640;2023-03-01T00:28:15;26.38;;;17.73;;
36829;SDS011;22767;47.328;9.640;2023-03-01T00:30:41;23.85;;;17.48;;
36829;SDS011;22767;47.328;9.640;2023-03-01T00:33:07;23.67;;;16.52;;
36829;SDS011;22767;47.328;9.640;2023-03-01T00:35:33;23.95;;;16.55;;
36829;SDS011;22767;47.328;9.640;2023-03-01T00:38:00;25.85;;;17.30;;
36829;SDS011;22767;47.328;9.640;2023-03-01T00:40:27;25.10;;;16.50;;
36829;SDS011;22767;47.328;9.640;2023-03-01T00:42:53;21.73;;;16.25;;
36829;SDS011;22767;47.328;9.640;2023-03-01T00:45:20;24.23;;;17.02;;
36829;SDS011;22767;47.328;9.640;2023-03-01T00:47:46;24.27;;;17.13;;
36829;SDS011;22767;47.328;9.640;2023-03-01T00:50:13;25.95;;;17.08;;
36829;SDS011;22767;47.328;9.640;2023-03-01T00:52:39;23.85;;;16.88;;
36829;SDS011;22767;47.328;9.640;2023-03-01T00:55:06;25.50;;;17.48;;
36829;SDS011;22767;47.328;9.640;2023-03-01T00:57:32;22.75;;;16.50;;
36829;SDS011;22767;47.328;9.640;2023-03-01T00:59:58;25.77;;;17.20;;
36829;SDS011;22767;47.328;9.640;2023-03-01T01:02:24;25.55;;;17.92;;
36829;SDS011;22767;47.328;9.640;2023-03-01T01:04:51;23.55;;;16.60;;
36829;SDS011;22767;47.328;9.640;2023-03-01T01:07:17;28.63;;;17.65;;
36829;SDS011;22767;47.328;9.640;2023-03-01T01:09:45;24.48;;;16.95;;
36829;SDS011;22767;47.328;9.640;2023-03-01T01:12:11;26.30;;;17.95;;
36829;SDS011;22767;47.328;9.640;2023-03-01T01:14:37;25.90;;;18.17;;
36829;SDS011;22767;47.328;9.640;2023-03-01T01:17:04;26.80;;;17.85;;
36829;SDS011;22767;47.328;9.640;2023-03-01T01:19:30;24.85;;;16.88;;
36829;SDS011;22767;47.328;9.640;2023-03-01T01:21:56;27.20;;;17.48;;
36829;SDS011;22767;47.328;9.640;2023-03-01T01:24:23;25.67;;;17.30;;
36829;SDS011;22767;47.328;9.640;2023-03-01T01:26:49;26.38;;;17.00;;
36829;SDS011;22767;47.328;9.640;2023-03-01T01:29:15;24.15;;;16.45;;
36829;SDS011;22767;47.328;9.640;2023-03-01T01:31:41;27.27;;;17.55;;
36829;SDS011;22767;47.328;9.640;2023-03-01T01:34:11;25.45;;;17.90;;
36829;SDS011;22767;47.328;9.640;2023-03-01T01:36:38;24.05;;;17.27;;
36829;SDS011;22767;47.328;9.640;2023-03-01T01:39:04;27.25;;;17.65;;
36829;SDS011;22767;47.328;9.640;2023-03-01T01:41:30;27.42;;;18.45;;
36829;SDS011;22767;47.328;9.640;2023-03-01T01:44:16;24.70;;;17.67;;
36829;SDS011;22767;47.328;9.640;2023-03-01T01:46:59;25.52;;;17.10;;
36829;SDS011;22767;47.328;9.640;2023-03-01T01:51:57;27.73;;;18.67;;
36829;SDS011;22767;47.328;9.640;2023-03-01T01:54:48;26.50;;;17.73;;
36829;SDS011;22767;47.328;9.640;2023-03-01T01:57:13;26.10;;;17.50;;
36829;SDS011;22767;47.328;9.640;2023-03-01T01:59:40;27.05;;;18.13;;
36829;SDS011;22767;47.328;9.640;2023-03-01T02:02:08;26.75;;;17.85;;
36829;SDS011;22767;47.328;9.640;2023-03-01T02:04:35;29.05;;;18.17;;
36829;SDS011;22767;47.328;9.640;2023-03-01T02:07:02;25.48;;;18.08;;
36829;SDS011;22767;47.328;9.640;2023-03-01T02:09:29;29.02;;;18.35;;
36829;SDS011;22767;47.328;9.640;2023-03-01T02:11:56;27.88;;;17.92;;
36829;SDS011;22767;47.328;9.640;2023-03-01T02:14:23;24.92;;;16.85;;
36829;SDS011;22767;47.328;9.640;2023-03-01T02:16:49;27.50;;;18.73;;
36829;SDS011;22767;47.328;9.640;2023-03-01T02:19:19;26.05;;;17.08;;
36829;SDS011;22767;47.328;9.640;2023-03-01T02:21:57;24.67;;;17.33;;
36829;SDS011;22767;47.328;9.640;2023-03-01T02:24:32;28.25;;;18.60;;
36829;SDS011;22767;47.328;9.640;2023-03-01T02:27:00;27.50;;;18.48;;
36829;SDS011;22767;47.328;9.640;2023-03-01T02:29:26;26.17;;;18.30;;
36829;SDS011;22767;47.328;9.640;2023-03-01T02:31:52;26.88;;;18.55;;
36829;SDS011;22767;47.328;9.640;2023-03-01T02:34:22;26.17;;;18.17;;
36829;SDS011;22767;47.328;9.640;2023-03-01T02:37:12;28.10;;;18.30;;
36829;SDS011;22767;47.328;9.640;2023-03-01T02:39:41;26.65;;;18.17;;
36829;SDS011;22767;47.328;9.640;2023-03-01T02:42:15;29.02;;;19.08;;
36829;SDS011;22767;47.328;9.640;2023-03-01T02:44:42;25.90;;;17.05;;
36829;SDS011;22767;47.328;9.640;2023-03-01T02:47:09;26.30;;;17.92;;
36829;SDS011;22767;47.328;9.640;2023-03-01T02:49:45;27.58;;;18.48;;
36829;SDS011;22767;47.328;9.640;2023-03-01T02:52:16;23.92;;;17.60;;
36829;SDS011;22767;47.328;9.640;2023-03-01T02:57:18;24.67;;;17.70;;
36829;SDS011;22767;47.328;9.640;2023-03-01T02:59:45;26.35;;;17.48;;
36829;SDS011;22767;47.328;9.640;2023-03-01T03:02:19;28.08;;;18.45;;
36829;SDS011;22767;47.328;9.640;2023-03-01T03:04:47;25.60;;;17.48;;
36829;SDS011;22767;47.328;9.640;2023-03-01T03:07:13;28.40;;;18.73;;
36829;SDS011;22767;47.328;9.640;2023-03-01T03:09:39;24.65;;;17.60;;
36829;SDS011;22767;47.328;9.640;2023-03-01T03:12:05;25.42;;;17.90;;
36829;SDS011;22767;47.328;9.640;2023-03-01T03:14:31;24.85;;;16.83;;
36829;SDS011;22767;47.328;9.640;2023-03-01T03:16:59;25.58;;;17.25;;
36829;SDS011;22767;47.328;9.640;2023-03-01T03:19:25;24.73;;;17.75;;
36829;SDS011;22767;47.328;9.640;2023-03-01T03:21:52;24.05;;;17.45;;
36829;SDS011;22767;47.328;9.640;2023-03-01T03:24:18;26.60;;;17.65;;
36829;SDS011;22767;47.328;9.640;2023-03-01T03:26:44;28.15;;;18.08;;
36829;SDS011;22767;47.328;9.640;2023-03-01T03:29:10;27.77;;;18.20;;
36829;SDS011;22767;47.328;9.640;2023-03-01T03:31:36;25.42;;;18.48;;
36829;SDS011;22767;47.328;9.640;2023-03-01T03:34:02;26.42;;;17.67;;
36829;SDS011;22767;47.328;9.640;2023-03-01T03:36:29;26.27;;;17.98;;
36829;SDS011;22767;47.328;9.640;2023-03-01T03:38:55;23.80;;;16.88;;
36829;SDS011;22767;47.328;9.640;2023-03-01T03:41:21;27.98;;;17.88;;
36829;SDS011;22767;47.328;9.640;2023-03-01T03:43:47;24.35;;;17.58;;
36829;SDS011;22767;47.328;9.640;2023-03-01T03:46:13;29.35;;;18.98;;
36829;SDS011;22767;47.328;9.640;2023-03-01T03:48:44;26.75;;;18.52;;
36829;SDS011;22767;47.328;9.640;2023-03-01T03:51:14;26.20;;;17.83;;
36829;SDS011;22767;47.328;9.640;2023-03-01T03:53:41;28.83;;;19.35;;
36829;SDS011;22767;47.328;9.640;2023-03-01T03:56:07;28.98;;;19.35;;
36829;SDS011;22767;47.328;9.640;2023-03-01T03:58:33;30.33;;;20.83;;
36829;SDS011;22767;47.328;9.640;2023-03-01T04:00:59;30.92;;;20.10;;
36829;SDS011;22767;47.328;9.640;2023-03-01T04:03:26;31.58;;;20.80;;
36829;SDS011;22767;47.328;9.640;2023-03-01T04:05:53;26.55;;;19.40;;
36829;SDS011;22767;47.328;9.640;2023-03-01T04:08:19;28.67;;;19.63;;
36829;SDS011;22767;47.328;9.640;2023-03-01T04:10:47;26.35;;;18.13;;
36829;SDS011;22767;47.328;9.640;2023-03-01T04:13:14;28.38;;;19.80;;
36829;SDS011;22767;47.328;9.640;2023-03-01T04:15:41;27.10;;;18.95;;
36829;SDS011;22767;47.328;9.640;2023-03-01T04:18:14;26.15;;;18.48;;
36829;SDS011;22767;47.328;9.640;2023-03-01T04:20:40;25.23;;;17.90;;
36829;SDS011;22767;47.328;9.640;2023-03-01T04:23:07;27.67;;;18.63;;
36829;SDS011;22767;47.328;9.640;2023-03-01T04:28:11;27.13;;;17.80;;
36829;SDS011;22767;47.328;9.640;2023-03-01T04:30:38;25.85;;;17.75;;
36829;SDS011;22767;47.328;9.640;2023-03-01T04:33:04;26.08;;;17.98;;
36829;SDS011;22767;47.328;9.640;2023-03-01T04:35:31;25.88;;;17.23;;
36829;SDS011;22767;47.328;9.640;2023-03-01T04:37:58;26.60;;;17.38;;
36829;SDS011;22767;47.328;9.640;2023-03-01T04:40:24;26.70;;;17.58;;
36829;SDS011;22767;47.328;9.640;2023-03-01T04:42:50;26.35;;;17.58;;
36829;SDS011;22767;47.328;9.640;2023-03-01T04:45:17;24.33;;;16.88;;
36829;SDS011;22767;47.328;9.640;2023-03-01T04:47:43;26.60;;;18.35;;
36829;SDS011;22767;47.328;9.640;2023-03-01T04:50:11;26.00;;;18.33;;
36829;SDS011;22767;47.328;9.640;2023-03-01T04:52:37;26.45;;;18.02;;
36829;SDS011;22767;47.328;9.640;2023-03-01T04:55:04;27.15;;;17.58;;
36829;SDS011;22767;47.328;9.640;2023-03-01T04:57:30;27.10;;;17.65;;
36829;SDS011;22767;47.328;9.640;2023-03-01T04:59:56;28.05;;;17.95;;
36829;SDS011;22767;47.328;9.640;2023-03-01T05:02:23;26.23;;;17.05;;
36829;SDS011;22767;47.328;9.640;2023-03-01T05:04:49;27.58;;;17.88;;
36829;SDS011;22767;47.328;9.640;2023-03-01T05:07:15;26.08;;;17.88;;
36829;SDS011;22767;47.328;9.640;2023-03-01T05:09:45;26.23;;;16.75;;
36829;SDS011;22767;47.328;9.640;2023-03-01T05:12:12;25.92;;;17.83;;
36829;SDS011;22767;47.328;9.640;2023-03-01T05:14:38;26.77;;;17.40;;
36829;SDS011;22767;47.328;9.640;2023-03-01T05:17:04;27.20;;;18.20;;
36829;SDS011;22767;47.328;9.640;2023-03-01T05:19:31;26.45;;;17.13;;
36829;SDS011;22767;47.328;9.640;2023-03-01T05:21:57;25.40;;;16.90;;
36829;SDS011;22767;47.328;9.640;2023-03-01T05:24:27;24.92;;;16.85;;
36829;SDS011;22767;47.328;9.640;2023-03-01T05:26:53;27.17;;;17.42;;
36829;SDS011;22767;47.328;9.640;2023-03-01T05:29:20;27.85;;;17.30;;
36829;SDS011;22767;47.328;9.640;2023-03-01T05:31:51;27.38;;;17.80;;
36829;SDS011;22767;47.328;9.640;2023-03-01T05:34:18;25.55;;;17.25;;
36829;SDS011;22767;47.328;9.640;2023-03-01T05:36:47;26.10;;;17.27;;
36829;SDS011;22767;47.328;9.640;2023-03-01T05:39:16;30.27;;;18.25;;
36829;SDS011;22767;47.328;9.640;2023-03-01T05:41:42;27.80;;;18.05;;
36829;SDS011;22767;47.328;9.640;2023-03-01T05:44:08;27.65;;;18.35;;
36829;SDS011;22767;47.328;9.640;2023-03-01T05:46:34;29.83;;;20.08;;
36829;SDS011;22767;47.328;9.640;2023-03-01T05:49:00;30.58;;;18.58;;
36829;SDS011;22767;47.328;9.640;2023-03-01T05:51:27;27.13;;;17.35;;
36829;SDS011;22767;47.328;9.640;2023-03-01T05:53:53;26.60;;;17.70;;
36829;SDS011;22767;47.328;9.640;2023-03-01T05:56:19;28.90;;;18.73;;
36829;SDS011;22767;47.328;9.640;2023-03-01T05:58:50;26.58;;;17.67;;
36829;SDS011;22767;47.328;9.640;2023-03-01T06:01:16;28.02;;;17.98;;
36829;SDS011;22767;47.328;9.640;2023-03-01T06:03:42;27.45;;;17.52;;
36829;SDS011;22767;47.328;9.640;2023-03-01T06:06:08;26.23;;;17.13;;
36829;SDS011;22767;47.328;9.640;2023-03-01T06:08:34;24.02;;;16.75;;
36829;SDS011;22767;47.328;9.640;2023-03-01T06:11:00;26.63;;;17.23;;
36829;SDS011;22767;47.328;9.640;2023-03-01T06:13:26;25.38;;;17.00;;
36829;SDS011;22767;47.328;9.640;2023-03-01T06:15:53;25.67;;;16.90;;
36829;SDS011;22767;47.328;9.640;2023-03-01T06:18:19;26.50;;;17.00;;
36829;SDS011;22767;47.328;9.640;2023-03-01T06:20:45;24.95;;;16.77;;
36829;SDS011;22767;47.328;9.640;2023-03-01T06:23:17;24.83;;;16.42;;
36829;SDS011;22767;47.328;9.640;2023-03-01T06:25:43;23.23;;;17.25;;
36829;SDS011;22767;47.328;9.640;2023-03-01T06:28:09;24.30;;;16.23;;
36829;SDS011;22767;47.328;9.640;2023-03-01T06:30:36;27.45;;;16.60;;
36829;SDS011;22767;47.328;9.640;2023-03-01T06:33:02;25.17;;;16.48;;
36829;SDS011;22767;47.328;9.640;2023-03-01T06:35:28;26.35;;;16.50;;
36829;SDS011;22767;47.328;9.640;2023-03-01T06:37:55;25.60;;;16.73;;
36829;SDS011;22767;47.328;9.640;2023-03-01T06:40:21;25.05;;;16.17;;
36829;SDS011;22767;47.328;9.640;2023-03-01T06:42:48;25.65;;;17.23;;
36829;SDS011;22767;47.328;9.640;2023-03-01T06:45:18;25.73;;;16.80;;
36829;SDS011;22767;47.328;9.640;2023-03-01T06:47:45;24.60;;;16.33;;
36829;SDS011;22767;47.328;9.640;2023-03-01T06:50:11;24.83;;;16.05;;
36829;SDS011;22767;47.328;9.640;2023-03-01T06:52:37;25.85;;;16.70;;
36829;SDS011;22767;47.328;9.640;2023-03-01T06:55:04;24.38;;;16.08;;
36829;SDS011;22767;47.328;9.640;2023-03-01T06:57:30;27.50;;;16.73;;
36829;SDS011;22767;47.328;9.640;2023-03-01T06:59:56;27.08;;;16.67;;
36829;SDS011;22767;47.328;9.640;2023-03-01T07:02:22;25.98;;;15.93;;
36829;SDS011;22767;47.328;9.640;2023-03-01T07:04:52;25.58;;;16.33;;
36829;SDS011;22767;47.328;9.640;2023-03-01T07:07:18;29.30;;;17.77;;
36829;SDS011;22767;47.328;9.640;2023-03-01T07:09:45;28.15;;;16.40;;
36829;SDS011;22767;47.328;9.640;2023-03-01T07:12:11;25.77;;;17.30;;
36829;SDS011;22767;47.328;9.640;2023-03-01T07:14:37;33.85;;;18.50;;
36829;SDS011;22767;47.328;9.640;2023-03-01T07:17:03;28.80;;;18.50;;
36829;SDS011;22767;47.328;9.640;2023-03-01T07:19:29;26.52;;;17.55;;
36829;SDS011;22767;47.328;9.640;2023-03-01T07:21:55;26.70;;;17.33;;
36829;SDS011;22767;47.328;9.640;2023-03-01T07:24:21;26.83;;;17.27;;
36829;SDS011;22767;47.328;9.640;2023-03-01T07:26:48;28.95;;;17.90;;
36829;SDS011;22767;47.328;9.640;2023-03-01T07:29:15;28.52;;;18.00;;
36829;SDS011;22767;47.328;9.640;2023-03-01T07:31:41;28.23;;;17.48;;
36829;SDS011;22767;47.328;9.640;2023-03-01T07:34:07;31.08;;;18.20;;
36829;SDS011;22767;47.328;9.640;2023-03-01T07:36:33;27.30;;;17.05;;
36829;SDS011;22767;47.328;9.640;2023-03-01T07:38:59;28.52;;;17.92;;
36829;SDS011;22767;47.328;9.640;2023-03-01T07:41:30;28.10;;;17.58;;
36829;SDS011;22767;47.328;9.640;2023-03-01T07:43:56;26.35;;;17.52;;
36829;SDS011;22767;47.328;9.640;2023-03-01T07:46:22;27.50;;;17.63;;
36829;SDS011;22767;47.328;9.640;2023-03-01T07:48:48;24.33;;;16.67;;
36829;SDS011;22767;47.328;9.640;2023-03-01T07:51:15;27.15;;;16.95;;
36829;SDS011;22767;47.328;9.640;2023-03-01T07:53:41;26.38;;;17.17;;
36829;SDS011;22767;47.328;9.640;2023-03-01T07:56:08;26.75;;;17.15;;
36829;SDS011;22767;47.328;9.640;2023-03-01T07:58:35;30.52;;;19.23;;
36829;SDS011;22767;47.328;9.640;2023-03-01T08:01:02;28.70;;;17.25;;
36829;SDS011;22767;47.328;9.640;2023-03-01T08:03:28;29.88;;;17.40;;
36829;SDS011;22767;47.328;9.640;2023-03-01T08:05:55;28.48;;;17.25;;
36829;SDS011;22767;47.328;9.640;2023-03-01T08:08:21;28.98;;;17.40;;
36829;SDS011;22767;47.328;9.640;2023-03-01T08:10:47;25.52;;;16.73;;
36829;SDS011;22767;47.328;9.640;2023-03-01T08:13:13;26.05;;;16.83;;
36829;SDS011;22767;47.328;9.640;2023-03-01T08:15:39;26.42;;;17.20;;
36829;SDS011;22767;47.328;9.640;2023-03-01T08:18:05;23.95;;;16.05;;
36829;SDS011;22767;47.328;9.640;2023-03-01T08:20:31;25.63;;;16.50;;
36829;SDS011;22767;47.328;9.640;2023-03-01T08:22:57;25.70;;;17.10;;
36829;SDS011;22767;47.328;9.640;2023-03-01T08:25:24;29.73;;;16.20;;
36829;SDS011;22767;47.328;9.640;2023-03-01T08:27:50;23.85;;;15.63;;
36829;SDS011;22767;47.328;9.640;2023-03-01T08:30:16;26.85;;;16.27;;
36829;SDS011;22767;47.328;9.640;2023-03-01T08:32:43;25.48;;;15.93;;
36829;SDS011;22767;47.328;9.640;2023-03-01T08:35:09;26.40;;;16.33;;
36829;SDS011;22767;47.328;9.640;2023-03-01T08:37:35;26.20;;;16.05;;
36829;SDS011;22767;47.328;9.640;2023-03-01T08:40:01;27.52;;;17.67;;
36829;SDS011;22767;47.328;9.640;2023-03-01T08:42:32;25.90;;;16.95;;
36829;SDS011;22767;47.328;9.640;2023-03-01T08:44:58;27.92;;;17.77;;
36829;SDS011;22767;47.328;9.640;2023-03-01T08:47:24;27.10;;;16.85;;
36829;SDS011;22767;47.328;9.640;2023-03-01T08:49:51;27.42;;;17.58;;
36829;SDS011;22767;47.328;9.640;2023-03-01T08:52:18;30.92;;;17.55;;
36829;SDS011;22767;47.328;9.640;2023-03-01T08:54:45;26.15;;;17.02;;
36829;SDS011;22767;47.328;9.640;2023-03-01T08:57:11;25.52;;;17.15;;
36829;SDS011;22767;47.328;9.640;2023-03-01T08:59:37;28.25;;;18.20;;
36829;SDS011;22767;47.328;9.640;2023-03-01T09:02:04;29.40;;;17.50;;
36829;SDS011;22767;47.328;9.640;2023-03-01T09:04:31;26.58;;;17.15;;
36829;SDS011;22767;47.328;9.640;2023-03-01T09:06:58;29.85;;;17.67;;
36829;SDS011;22767;47.328;9.640;2023-03-01T09:09:24;27.15;;;17.48;;
36829;SDS011;22767;47.328;9.640;2023-03-01T09:11:50;28.90;;;17.15;;
36829;SDS011;22767;47.328;9.640;2023-03-01T09:14:17;26.17;;;16.73;;
36829;SDS011;22767;47.328;9.640;2023-03-01T09:16:43;25.92;;;17.40;;
36829;SDS011;22767;47.328;9.640;2023-03-01T09:19:10;30.27;;;17.75;;
36829;SDS011;22767;47.328;9.640;2023-03-01T09:21:36;27.52;;;17.23;;
36829;SDS011;22767;47.328;9.640;2023-03-01T09:24:03;29.05;;;18.15;;
36829;SDS011;22767;47.328;9.640;2023-03-01T09:26:29;25.25;;;17.10;;
36829;SDS011;22767;47.328;9.640;2023-03-01T09:28:56;28.42;;;17.05;;
36829;SDS011;22767;47.328;9.640;2023-03-01T09:31:22;26.45;;;16.70;;
36829;SDS011;22767;47.328;9.640;2023-03-01T09:33:50;27.90;;;17.63;;
36829;SDS011;22767;47.328;9.640;2023-03-01T09:36:20;27.67;;;17.80;;
36829;SDS011;22767;47.328;9.640;2023-03-01T09:38:47;26.45;;;17.60;;
36829;SDS011;22767;47.328;9.640;2023-03-01T09:46:29;27.30;;;18.10;;
36829;SDS011;22767;47.328;9.640;2023-03-01T09:48:58;25.73;;;16.73;;
36829;SDS011;22767;47.328;9.640;2023-03-01T09:51:30;26.40;;;16.38;;
36829;SDS011;22767;47.328;9.640;2023-03-01T09:53:57;24.73;;;16.27;;
36829;SDS011;22767;47.328;9.640;2023-03-01T09:56:34;25.17;;;16.52;;
36829;SDS011;22767;47.328;9.640;2023-03-01T10:01:54;24.15;;;15.60;;
36829;SDS011;22767;47.328;9.640;2023-03-01T10:09:25;24.98;;;16.63;;
36829;SDS011;22767;47.328;9.640;2023-03-01T10:11:52;23.70;;;15.13;;
36829;SDS011;22767;47.328;9.640;2023-03-01T10:14:36;24.95;;;16.83;;
36829;SDS011;22767;47.328;9.640;2023-03-01T10:17:04;23.00;;;16.17;;
36829;SDS011;22767;47.328;9.640;2023-03-01T10:19:40;26.50;;;16.63;;
36829;SDS011;22767;47.328;9.640;2023-03-01T10:22:15;27.48;;;16.88;;
36829;SDS011;22767;47.328;9.640;2023-03-01T10:24:42;27.42;;;17.75;;
36829;SDS011;22767;47.328;9.640;2023-03-01T10:27:14;26.08;;;16.23;;
36829;SDS011;22767;47.328;9.640;2023-03-01T10:29:46;25.10;;;16.50;;
36829;SDS011;22767;47.328;9.640;2023-03-01T10:32:14;25.80;;;17.92;;
36829;SDS011;22767;47.328;9.640;2023-03-01T10:34:41;27.48;;;18.90;;
36829;SDS011;22767;47.328;9.640;2023-03-01T10:37:17;27.35;;;17.02;;
36829;SDS011;22767;47.328;9.640;2023-03-01T10:42:46;27.50;;;17.67;;
36829;SDS011;22767;47.328;9.640;2023-03-01T10:47:53;27.30;;;17.42;;
36829;SDS011;22767;47.328;9.640;2023-03-01T10:50:28;25.73;;;17.20;;
36829;SDS011;22767;47.328;9.640;2023-03-01T10:52:58;25.70;;;17.08;;
36829;SDS011;22767;47.328;9.640;2023-03-01T10:55:35;27.65;;;16.40;;
36829;SDS011;22767;47.328;9.640;2023-03-01T10:58:20;30.17;;;17.67;;
36829;SDS011;22767;47.328;9.640;2023-03-01T11:00:49;27.10;;;17.55;;
36829;SDS011;22767;47.328;9.640;2023-03-01T11:03:18;32.53;;;18.70;;
36829;SDS011;22767;47.328;9.640;2023-03-01T11:05:56;26.67;;;17.55;;
36829;SDS011;22767;47.328;9.640;2023-03-01T11:08:32;25.90;;;17.38;;
36829;SDS011;22767;47.328;9.640;2023-03-01T11:11:40;28.48;;;17.63;;
36829;SDS011;22767;47.328;9.640;2023-03-01T11:16:27;25.13;;;17.10;;
36829;SDS011;22767;47.328;9.640;2023-03-01T11:18:58;29.70;;;18.23;;
36829;SDS011;22767;47.328;9.640;2023-03-01T11:21:25;27.73;;;17.27;;
36829;SDS011;22767;47.328;9.640;2023-03-01T11:23:53;26.27;;;17.15;;
36829;SDS011;22767;47.328;9.640;2023-03-01T11:26:19;25.73;;;16.30;;
36829;SDS011;22767;47.328;9.640;2023-03-01T11:28:48;28.73;;;17.77;;
36829;SDS011;22767;47.328;9.640;2023-03-01T11:31:15;27.63;;;17.40;;
36829;SDS011;22767;47.328;9.640;2023-03-01T11:33:46;27.73;;;17.20;;
36829;SDS011;22767;47.328;9.640;2023-03-01T11:38:39;23.13;;;15.10;;
36829;SDS011;22767;47.328;9.640;2023-03-01T11:41:20;25.65;;;16.48;;
36829;SDS011;22767;47.328;9.640;2023-03-01T11:43:48;25.92;;;16.92;;
36829;SDS011;22767;47.328;9.640;2023-03-01T11:48:50;28.65;;;16.65;;
36829;SDS011;22767;47.328;9.640;2023-03-01T11:53:51;27.60;;;17.23;;
36829;SDS011;22767;47.328;9.640;2023-03-01T11:56:29;26.80;;;16.83;;
36829;SDS011;22767;47.328;9.640;2023-03-01T11:59:20;27.75;;;18.38;;
36829;SDS011;22767;47.328;9.640;2023-03-01T12:06:52;27.38;;;17.38;;
36829;SDS011;22767;47.328;9.640;2023-03-01T12:09:27;28.55;;;16.77;;
36829;SDS011;22767;47.328;9.640;2023-03-01T12:12:04;25.67;;;16.23;;
36829;SDS011;22767;47.328;9.640;2023-03-01T12:14:47;26.48;;;16.67;;
36829;SDS011;22767;47.328;9.640;2023-03-01T12:17:20;22.65;;;15.40;;
36829;SDS011;22767;47.328;9.640;2023-03-01T12:22:30;24.30;;;15.70;;
36829;SDS011;22767;47.328;9.640;2023-03-01T12:27:43;21.42;;;14.57;;
36829;SDS011;22767;47.328;9.640;2023-03-01T12:32:45;21.15;;;14.70;;
36829;SDS011;22767;47.328;9.640;2023-03-01T12:35:20;22.20;;;14.10;;
36829;SDS011;22767;47.328;9.640;2023-03-01T12:37:54;21.02;;;13.80;;
36829;SDS011;22767;47.328;9.640;2023-03-01T12:45:50;20.58;;;13.68;;
36829;SDS011;22767;47.328;9.640;2023-03-01T12:48:35;18.52;;;13.52;;
36829;SDS011;22767;47.328;9.640;2023-03-01T12:51:05;18.58;;;12.80;;
36829;SDS011;22767;47.328;9.640;2023-03-01T12:53:44;21.92;;;14.57;;
36829;SDS011;22767;47.328;9.640;2023-03-01T12:56:12;20.42;;;13.93;;
36829;SDS011;22767;47.328;9.640;2023-03-01T12:58:41;19.88;;;13.63;;
36829;SDS011;22767;47.328;9.640;2023-03-01T13:06:47;20.98;;;13.30;;
36829;SDS011;22767;47.328;9.640;2023-03-01T13:11:32;19.90;;;13.13;;
36829;SDS011;22767;47.328;9.640;2023-03-01T13:16:44;22.00;;;14.55;;
36829;SDS011;22767;47.328;9.640;2023-03-01T13:19:21;22.30;;;13.50;;
36829;SDS011;22767;47.328;9.640;2023-03-01T13:21:48;19.98;;;14.43;;
36829;SDS011;22767;47.328;9.640;2023-03-01T13:24:24;18.83;;;13.23;;
36829;SDS011;22767;47.328;9.640;2023-03-01T13:27:24;21.27;;;13.82;;
36829;SDS011;22767;47.328;9.640;2023-03-01T13:32:25;21.52;;;14.90;;
36829;SDS011;22767;47.328;9.640;2023-03-01T13:34:54;18.52;;;13.57;;
36829;SDS011;22767;47.328;9.640;2023-03-01T13:37:24;18.80;;;13.20;;
36829;SDS011;22767;47.328;9.640;2023-03-01T13:39:51;18.33;;;12.75;;
36829;SDS011;22767;47.328;9.640;2023-03-01T13:42:31;19.92;;;14.00;;
36829;SDS011;22767;47.328;9.640;2023-03-01T13:44:58;20.77;;;15.13;;
36829;SDS011;22767;47.328;9.640;2023-03-01T13:47:24;20.17;;;14.20;;
36829;SDS011;22767;47.328;9.640;2023-03-01T13:49:57;21.63;;;13.88;;
36829;SDS011;22767;47.328;9.640;2023-03-01T13:52:33;19.88;;;13.93;;
36829;SDS011;22767;47.328;9.640;2023-03-01T13:55:01;19.48;;;13.75;;
36829;SDS011;22767;47.328;9.640;2023-03-01T13:57:36;18.90;;;13.02;;
36829;SDS011;22767;47.328;9.640;2023-03-01T14:00:04;18.98;;;12.75;;
36829;SDS011;22767;47.328;9.640;2023-03-01T14:02:31;19.23;;;12.65;;
36829;SDS011;22767;47.328;9.640;2023-03-01T14:04:59;19.60;;;13.60;;
36829;SDS011;22767;47.328;9.640;2023-03-01T14:07:26;18.15;;;13.32;;
36829;SDS011;22767;47.328;9.640;2023-03-01T14:10:00;20.45;;;14.27;;
36829;SDS011;22767;47.328;9.640;2023-03-01T14:12:34;20.33;;;14.07;;
36829;SDS011;22767;47.328;9.640;2023-03-01T14:22:33;19.27;;;13.60;;
36829;SDS011;22767;47.328;9.640;2023-03-01T14:25:01;20.88;;;14.77;;
36829;SDS011;22767;47.328;9.640;2023-03-01T14:27:35;23.27;;;14.95;;
36829;SDS011;22767;47.328;9.640;2023-03-01T14:30:10;22.25;;;14.57;;
36829;SDS011;22767;47.328;9.640;2023-03-01T14:32:37;20.70;;;15.25;;
36829;SDS011;22767;47.328;9.640;2023-03-01T14:35:18;22.25;;;14.75;;
36829;SDS011;22767;47.328;9.640;2023-03-01T14:37:45;22.45;;;14.25;;
36829;SDS011;22767;47.328;9.640;2023-03-01T14:40:20;20.80;;;14.65;;
36829;SDS011;22767;47.328;9.640;2023-03-01T14:42:46;19.30;;;14.23;;
36829;SDS011;22767;47.328;9.640;2023-03-01T14:45:12;21.13;;;14.27;;
36829;SDS011;22767;47.328;9.640;2023-03-01T14:47:39;24.85;;;16.08;;
36829;SDS011;22767;47.328;9.640;2023-03-01T14:50:13;26.45;;;15.85;;
36829;SDS011;22767;47.328;9.640;2023-03-01T14:52:42;21.40;;;14.05;;
36829;SDS011;22767;47.328;9.640;2023-03-01T14:55:20;19.48;;;14.07;;
36829;SDS011;22767;47.328;9.640;2023-03-01T14:57:48;21.75;;;15.55;;
36829;SDS011;22767;47.328;9.640;2023-03-01T15:00:24;24.02;;;15.27;;
36829;SDS011;22767;47.328;9.640;2023-03-01T15:02:51;24.08;;;15.60;;
36829;SDS011;22767;47.328;9.640;2023-03-01T15:05:51;22.58;;;15.52;;
36829;SDS011;22767;47.328;9.640;2023-03-01T15:08:17;21.63;;;14.85;;
36829;SDS011;22767;47.328;9.640;2023-03-01T15:10:55;19.83;;;13.77;;
36829;SDS011;22767;47.328;9.640;2023-03-01T15:13:23;22.13;;;15.38;;
36829;SDS011;22767;47.328;9.640;2023-03-01T15:15:49;21.08;;;14.68;;
36829;SDS011;22767;47.328;9.640;2023-03-01T15:20:46;23.20;;;16.33;;
36829;SDS011;22767;47.328;9.640;2023-03-01T15:23:18;24.85;;;15.73;;
36829;SDS011;22767;47.328;9.640;2023-03-01T15:25:44;22.70;;;15.50;;
36829;SDS011;22767;47.328;9.640;2023-03-01T15:28:12;20.95;;;14.23;;
36829;SDS011;22767;47.328;9.640;2023-03-01T15:30:43;24.55;;;15.88;;
36829;SDS011;22767;47.328;9.640;2023-03-01T15:35:49;23.77;;;15.63;;
36829;SDS011;22767;47.328;9.640;2023-03-01T15:40:57;21.98;;;15.70;;
36829;SDS011;22767;47.328;9.640;2023-03-01T15:43:37;24.70;;;16.17;;
36829;SDS011;22767;47.328;9.640;2023-03-01T15:46:04;20.02;;;15.23;;
36829;SDS011;22767;47.328;9.640;2023-03-01T15:48:30;24.92;;;16.02;;
36829;SDS011;22767;47.328;9.640;2023-03-01T15:50:57;22.45;;;15.48;;
36829;SDS011;22767;47.328;9.640;2023-03-01T15:53:24;23.92;;;16.50;;